Date,TemperatureHighF,TemperatureAvgF,TemperatureLowF,DewpointHighF,DewpointAvgF,DewpointLowF,HumidityHigh,HumidityAvg,HumidityLow,PressureMaxIn,PressureMinIn,WindSpeedMaxMPH,WindSpeedAvgMPH,GustSpeedMaxMPH,PrecipitationSumIn
2014-1-1,67.2,40.0,26.6,43.5,31.0,24.6,96,76,26,30.22,30.12,1,0,5,0.00
2014-1-2,64.1,44.8,30.4,40.2,35.5,28.4,95,73,39,30.19,30.05,0,0,2,0.00
2014-1-3,69.4,46.8,31.8,41.3,36.9,29.7,95,73,36,30.08,29.94,3,0,8,0.05
2014-1-4,69.4,42.7,30.3,42.8,34.4,28.3,95,75,36,30.08,29.98,2,0,6,0.00
2014-1-5,68.0,42.3,24.2,34.8,27.2,21.0,93,62,21,30.21,30.08,3,0,6,0.00
2014-1-6,56.4,41.8,30.8,34.1,29.7,24.9,83,65,37,30.29,30.16,3,0,7,0.00
2014-1-7,62.9,45.3,34.4,46.1,35.9,29.5,91,72,39,30.22,30.11,4,0,7,0.00
2014-1-8,60.9,45.3,34.2,51.5,42.3,31.8,98,89,71,30.24,30.13,4,0,5,0.01
2014-1-9,64.7,48.1,37.6,50.6,39.7,31.4,98,76,30,30.26,30.17,7,1,13,0.00
2014-1-10,64.6,46.8,34.4,49.3,40.3,31.5,93,79,52,30.31,30.16,5,0,8,0.00
2014-1-11,55.2,45.6,39.1,53.0,43.5,37.1,98,93,77,30.28,30.13,6,0,8,0.08
2014-1-12,61.8,46.4,31.8,46.7,37.1,30.3,98,74,37,30.41,30.27,9,2,13,0.02
2014-1-13,66.7,47.5,32.4,43.0,37.6,29.4,92,71,39,30.47,30.33,9,1,12,0.00
2014-1-14,68.9,43.4,26.9,43.1,33.4,24.5,96,73,31,30.47,30.32,6,0,6,0.00
2014-1-15,70.5,44.8,28.5,39.9,33.5,25.9,94,69,29,30.36,30.20,5,0,6,0.01
2014-1-16,72.5,45.5,26.4,38.5,32.1,23.8,93,66,22,30.24,30.11,6,0,7,0.00
2014-1-17,71.3,45.6,27.9,40.9,33.1,24.9,91,66,33,30.20,30.11,3,0,5,0.00
2014-1-18,74.2,45.9,27.3,36.8,30.6,23.4,92,62,21,30.19,30.06,3,0,5,0.00
2014-1-19,70.0,44.8,26.8,36.5,30.6,23.4,91,63,27,30.15,30.05,4,0,6,0.00
2014-1-20,70.3,44.2,26.2,35.5,30.2,22.9,91,64,27,30.25,30.12,3,0,6,0.00
2014-1-21,75.0,45.4,26.7,37.0,31.0,23.6,91,63,21,30.28,30.15,2,0,4,0.00
2014-1-22,74.2,45.9,28.6,37.1,30.9,25.3,91,63,20,30.18,29.91,8,0,9,0.00
2014-1-23,72.7,47.3,28.3,39.1,29.1,20.9,91,59,15,30.02,29.84,17,2,22,0.00
2014-1-24,71.0,47.6,32.0,38.8,30.9,25.7,82,57,21,30.28,30.01,11,1,13,0.00
2014-1-25,76.9,52.5,37.7,40.1,34.4,29.8,79,55,19,30.28,30.12,5,0,8,0.00
2014-1-26,73.8,49.4,34.5,44.9,36.9,30.5,91,67,26,30.14,30.03,5,1,8,0.00
2014-1-27,60.2,48.3,41.5,49.9,44.8,39.9,97,88,62,30.20,30.07,5,0,7,0.01
2014-1-28,49.3,48.1,47.5,47.0,46.2,45.1,94,93,90,30.20,30.17,2,0,3,0.00
2014-2-3,56.8,42.9,31.0,41.3,35.7,29.2,95,78,45,30.08,29.98,4,1,12,0.01
2014-2-4,54.6,41.5,30.4,37.5,33.3,28.1,94,75,48,30.17,30.07,2,0,6,0.00
2014-2-5,51.6,40.2,28.9,42.0,35.1,26.6,94,83,60,30.20,30.06,3,0,7,0.23
2014-2-6,51.8,46.8,43.4,47.2,44.7,41.7,96,92,83,30.06,29.91,4,1,11,0.96
2014-2-7,53.7,50.2,47.6,53.1,49.4,46.5,98,97,95,30.05,29.95,7,2,15,1.73
2014-2-8,56.9,53.9,52.4,56.3,53.3,51.8,99,98,97,30.12,29.99,6,3,17,3.97
2014-2-9,57.2,56.0,53.9,56.9,55.6,53.3,99,99,98,30.11,30.02,14,3,14,1.29
2014-2-10,62.1,53.8,48.6,56.4,52.2,47.8,99,94,80,30.27,30.07,5,1,7,0.01
2014-2-11,61.9,49.8,41.7,53.6,47.3,40.8,99,91,70,30.25,30.15,8,1,10,0.01
2014-2-12,58.7,51.3,47.0,52.7,49.1,46.2,98,93,79,30.28,30.17,5,1,9,0.01
2014-2-13,67.3,56.1,51.1,60.0,53.8,50.3,99,92,76,30.23,30.08,5,1,7,0.00
2014-2-14,63.7,57.1,53.0,57.6,53.5,52.1,99,88,69,30.17,30.04,10,1,11,0.00
2014-2-15,56.4,54.7,52.7,54.2,52.9,51.5,97,94,86,30.04,29.95,11,2,14,0.08
2014-2-16,65.8,51.3,39.4,53.2,43.8,35.4,98,79,37,30.21,30.01,7,1,8,0.01
2014-2-17,63.8,48.8,35.6,47.3,40.6,34.0,97,76,43,30.18,30.09,8,1,13,0.01
2014-2-18,64.1,50.7,39.6,51.2,44.7,37.9,97,81,59,30.20,30.07,6,0,8,0.00
2014-2-19,67.3,54.7,45.6,51.8,43.4,38.0,95,69,35,30.22,30.06,7,1,11,0.01
2014-2-20,71.8,52.4,40.5,48.5,41.0,36.6,89,68,36,30.22,30.11,11,1,14,0.00
2014-2-21,71.0,52.2,37.1,51.8,43.1,35.2,96,75,38,30.12,29.97,7,1,11,0.00
2014-2-22,68.9,51.1,37.7,51.1,44.2,35.9,96,80,47,30.02,29.93,9,1,11,0.00
2014-2-23,68.8,50.7,42.3,54.1,45.9,39.4,98,85,58,30.03,29.95,7,1,10,0.01
2014-2-24,73.4,52.9,35.7,52.3,43.2,34.1,97,74,33,30.00,29.91,6,1,8,0.00
2014-2-25,46.8,42.5,39.3,43.1,40.4,37.3,95,93,87,29.97,29.93,3,0,3,0.00
2014-4-5,69.8,54.7,38.9,52.2,46.1,37.6,97,76,48,30.19,30.05,4,1,11,0.01
2014-4-6,80.3,60.6,43.5,59.9,49.8,41.6,95,72,34,30.23,30.11,4,1,10,0.00
2014-4-7,86.4,64.0,47.1,58.7,51.6,45.6,97,70,27,30.15,30.09,4,0,11,0.00
2014-4-8,80.3,55.1,48.6,61.6,50.4,47.0,96,85,49,30.10,30.04,4,0,13,0.00
2014-4-9,68.8,54.4,47.3,57.6,49.7,45.8,97,85,56,30.08,30.00,5,2,12,0.00
2014-4-10,77.3,57.2,46.8,61.3,50.8,45.8,97,82,45,30.03,29.91,6,1,16,0.01
2014-4-11,64.2,51.9,47.0,55.4,48.8,45.9,98,89,72,29.94,29.85,5,2,13,0.00
2014-4-12,63.7,54.6,50.5,52.7,48.4,46.2,88,80,66,29.93,29.87,12,2,15,0.00
2014-4-13,72.4,56.3,49.2,58.4,50.4,47.0,92,82,58,30.05,29.93,10,1,12,0.00
2014-4-14,71.5,54.3,45.8,60.8,50.4,43.9,98,88,63,30.11,30.01,11,1,16,0.01
2014-4-15,72.1,56.7,49.5,58.8,51.3,47.0,96,84,58,30.06,29.90,9,1,11,0.00
2014-4-16,78.0,59.6,43.8,56.7,48.3,42.2,98,71,33,29.92,29.82,10,1,13,0.00
2014-4-17,77.3,60.6,45.9,60.3,48.8,39.7,96,69,28,29.86,29.79,18,2,25,0.00
2014-4-18,70.0,57.5,45.1,55.5,48.6,42.6,94,74,51,29.93,29.86,11,2,13,0.00
2014-4-19,71.3,55.6,43.2,55.3,47.9,40.9,96,78,43,30.11,29.92,11,2,13,0.00
2014-4-20,80.7,59.3,43.7,54.5,47.2,42.1,97,70,27,30.15,30.06,9,1,11,0.00
2014-4-21,68.1,54.6,43.2,52.9,44.6,37.2,93,71,38,30.07,29.95,8,2,13,0.00
2014-4-22,64.3,55.3,49.1,48.9,39.9,33.5,86,58,34,30.13,29.96,16,3,20,0.00
2014-4-23,69.9,55.7,40.4,48.5,41.9,35.3,86,62,33,30.14,30.08,14,2,16,0.00
2014-4-24,70.0,57.3,46.7,54.5,50.3,44.5,95,79,54,30.11,29.97,16,1,18,0.00
2014-4-25,57.5,52.4,43.8,51.5,47.9,40.8,94,85,70,29.97,29.77,8,1,12,0.41
2014-4-26,63.7,50.5,37.7,46.3,40.3,34.7,96,71,39,30.08,29.85,13,2,20,0.01
2014-4-27,66.2,56.2,47.9,54.1,47.8,43.6,97,75,53,30.13,30.00,11,1,14,0.09
2014-4-28,74.3,57.3,40.8,52.2,45.2,38.9,95,69,33,30.23,30.13,11,1,13,0.00
2014-4-29,90.9,66.1,46.0,59.1,48.2,36.8,87,59,17,30.20,30.07,8,1,15,0.00
2014-4-30,89.6,70.1,47.9,54.0,49.1,41.1,89,54,19,30.08,30.05,10,1,11,0.00
2014-5-1,89.8,68.4,48.1,57.3,47.7,35.9,93,56,16,30.12,30.03,6,1,11,0.00
2014-5-2,78.5,59.1,44.3,59.4,50.0,41.8,94,74,45,30.10,30.02,9,2,13,0.00
2014-5-3,71.5,59.2,49.6,52.3,49.2,45.3,96,72,48,30.04,29.97,13,2,15,0.00
2014-5-4,69.0,58.3,47.3,52.9,48.1,43.1,88,70,54,30.04,30.00,14,2,18,0.00
2014-5-5,70.0,58.0,47.2,50.5,45.1,37.6,89,64,40,30.04,29.92,17,2,18,0.00
2014-5-6,75.2,60.7,47.7,48.8,42.6,39.3,74,53,31,29.96,29.86,15,2,19,0.00
2014-5-7,72.0,57.5,41.0,52.6,45.5,38.3,93,67,37,29.99,29.88,7,1,11,0.00
2014-5-8,63.4,55.9,47.1,57.0,50.6,43.2,94,83,67,30.08,29.97,11,1,13,0.01
2014-5-9,71.8,59.7,46.7,55.3,48.7,41.8,98,70,39,30.16,30.07,15,2,15,0.00
2014-5-10,71.0,59.7,43.9,43.4,40.8,37.4,83,52,30,30.15,30.03,17,4,23,0.00
2014-5-11,80.2,64.1,47.4,46.4,41.3,32.7,77,49,19,30.14,30.04,10,2,14,0.00
2014-5-12,86.4,65.4,42.4,51.6,43.8,35.9,91,53,18,30.12,30.05,11,1,15,0.00
2014-5-13,92.8,69.2,45.7,53.1,46.5,40.8,88,51,21,30.15,30.07,11,1,13,0.00
2014-5-14,93.5,70.4,48.4,52.9,46.0,35.0,89,50,15,30.15,30.10,10,0,11,0.00
2014-5-15,88.8,67.2,45.2,59.5,43.9,34.5,88,50,15,30.12,30.07,8,1,11,0.00
2014-5-16,83.8,62.4,44.1,57.0,48.1,41.3,94,64,27,30.09,29.98,8,1,11,0.00
2014-5-17,79.0,63.1,46.2,57.7,49.7,42.9,95,65,40,29.99,29.93,8,1,13,0.00
2014-5-18,75.2,63.1,48.5,52.4,47.4,42.3,85,59,37,29.99,29.94,12,2,16,0.00
2014-7-11,72.4,63.3,56.6,57.3,54.7,52.5,86,74,57,30.08,29.96,5,1,16,0.00
2014-7-12,76.5,63.1,54.0,59.8,55.0,51.2,92,77,55,30.10,30.04,4,1,10,0.00
2014-7-13,87.0,67.3,54.8,62.4,56.4,52.9,96,72,41,30.04,29.88,4,1,12,0.00
2014-7-14,92.1,66.2,50.2,59.8,52.9,48.0,92,68,32,29.95,29.85,5,0,17,0.00
2014-7-15,80.3,65.5,55.0,63.2,57.0,52.5,93,76,50,30.02,29.92,4,1,13,0.00
2014-7-16,71.4,63.8,59.3,60.3,58.0,56.4,91,82,67,30.06,29.98,5,2,14,0.00
2014-7-17,72.4,61.6,57.0,59.2,55.5,54.0,93,81,62,30.03,29.98,7,2,15,0.00
2014-7-18,73.0,62.2,56.9,59.7,56.1,53.4,94,81,60,30.04,29.97,8,1,13,0.00
2014-7-19,75.9,63.2,55.7,60.9,56.2,53.4,93,79,58,29.98,29.93,9,1,12,0.00
2014-7-20,70.8,62.0,55.3,59.6,56.4,53.2,94,83,67,30.02,29.92,10,1,10,0.00
2014-7-21,75.5,64.6,57.8,61.1,58.3,54.6,92,81,60,30.09,29.98,11,1,16,0.00
2014-7-22,75.6,65.0,56.1,60.0,57.7,53.6,94,79,56,30.12,30.03,13,2,16,0.00
2014-7-23,80.3,68.4,57.3,62.9,58.8,54.0,93,73,52,30.16,30.04,10,1,13,0.00
2014-7-24,90.6,70.6,50.3,60.9,54.2,48.1,95,62,30,30.05,29.86,9,1,14,0.00
2014-7-25,98.3,73.0,51.3,56.6,52.0,45.6,91,55,18,29.92,29.83,11,1,12,0.00
2014-7-26,90.1,68.9,49.7,59.9,53.7,46.6,92,63,33,29.97,29.87,8,1,11,0.00
2014-7-27,90.1,68.0,56.3,61.5,55.3,52.8,89,68,31,30.01,29.94,11,1,14,0.00
2014-7-28,76.4,62.0,54.5,58.4,54.4,52.0,94,78,50,30.07,29.99,10,2,13,0.00
2014-7-29,85.9,65.7,54.2,61.0,55.4,52.2,95,73,35,30.07,30.00,8,1,13,0.00
2014-7-30,86.3,65.4,55.6,61.8,56.5,53.1,95,76,40,30.02,29.97,8,1,11,0.00
2014-7-31,81.5,64.0,54.5,61.8,56.0,51.6,96,78,48,30.00,29.90,8,1,11,0.00
2014-8-1,83.0,63.5,49.8,62.2,54.8,47.8,97,76,47,29.93,29.88,10,2,11,0.00
2014-8-2,76.5,60.9,54.1,60.5,54.9,52.7,96,82,56,29.97,29.89,11,2,12,0.00
2014-8-3,72.7,59.9,55.0,59.7,54.7,52.6,94,84,61,29.98,29.92,9,1,12,0.00
2014-8-4,73.9,60.9,55.2,60.7,55.4,52.8,94,83,61,30.01,29.94,8,1,11,0.00
2014-8-5,68.4,62.3,56.5,60.5,57.3,54.2,94,84,73,30.08,30.00,3,0,6,0.00
2014-8-6,84.3,68.1,57.6,65.5,59.1,54.3,94,75,47,30.03,29.96,10,1,10,0.00
2014-8-7,80.0,64.7,56.2,61.6,56.1,52.3,94,76,48,29.98,29.88,9,1,12,0.00
2014-8-8,87.0,65.3,49.8,61.1,53.7,47.6,96,70,41,29.93,29.86,9,1,13,0.00
2014-8-9,75.9,60.7,47.9,56.7,52.0,45.1,93,75,50,29.96,29.87,9,2,13,0.00
2014-8-10,75.3,61.9,53.5,58.9,54.3,50.1,92,78,55,30.02,29.94,14,1,14,0.00
2014-8-11,79.7,64.2,53.8,59.6,55.5,50.8,93,76,47,29.98,29.92,7,1,13,0.00
2014-8-12,72.5,62.0,54.5,58.1,55.3,51.4,92,80,60,30.02,29.94,7,1,10,0.00
2014-8-13,76.3,62.8,54.0,59.4,55.3,51.1,93,78,51,30.02,29.93,9,1,11,0.00
2014-8-14,76.1,61.4,53.2,60.1,54.9,52.0,97,82,53,29.98,29.92,9,1,12,0.00
2014-8-15,80.1,63.1,55.1,61.0,55.6,52.4,94,79,47,30.03,29.94,9,1,12,0.00
2014-8-16,81.8,63.4,54.2,59.1,54.7,51.4,93,76,42,30.06,29.99,9,1,12,0.00
2014-8-17,79.4,62.0,53.9,61.0,55.3,51.9,97,81,50,30.05,29.92,8,1,10,0.00
2014-8-18,73.6,61.0,54.5,59.7,55.8,53.1,96,84,59,29.92,29.81,7,1,11,0.00
2014-8-19,73.5,61.6,56.0,60.5,56.4,54.1,94,84,62,29.88,29.82,10,1,14,0.00
2014-8-20,66.2,61.0,58.2,59.4,57.2,55.4,96,87,76,29.95,29.86,9,1,10,0.00
2014-8-21,80.8,64.8,57.2,63.1,57.7,55.3,94,80,52,29.99,29.91,11,1,13,0.00
2014-8-22,77.5,63.2,56.5,61.0,56.8,54.8,95,81,55,29.95,29.89,11,1,12,0.00
2014-8-23,76.8,63.7,57.3,60.5,56.6,54.1,92,79,56,29.97,29.88,9,1,11,0.00
2014-8-24,75.3,63.7,55.4,58.2,55.1,51.6,91,75,52,29.93,29.84,9,1,11,0.00
2014-8-25,73.4,61.5,55.5,58.8,55.6,52.1,95,82,59,29.96,29.84,10,1,13,0.00
2014-8-26,79.7,65.2,57.5,59.6,55.9,53.8,88,74,49,30.03,29.96,7,1,10,0.00
2014-8-27,84.9,64.7,52.0,61.6,55.7,49.6,95,76,40,30.09,30.00,7,1,9,0.00
2014-8-28,84.9,64.7,55.4,62.7,56.6,53.7,95,78,44,30.09,29.95,8,1,9,0.00
2014-8-29,80.8,64.4,56.9,62.6,57.4,55.1,95,80,52,29.97,29.89,7,0,9,0.00
2014-8-30,92.9,71.2,50.1,59.4,53.7,44.3,95,61,21,29.92,29.86,7,0,10,0.00
2014-8-31,89.2,69.1,51.1,57.4,53.7,48.6,94,63,28,29.93,29.84,6,1,10,0.00
2014-9-1,93.0,67.9,49.3,59.8,52.7,46.1,92,64,28,29.86,29.78,5,1,9,0.00
2014-9-2,69.9,60.1,52.2,59.0,54.5,49.7,97,83,64,29.85,29.78,13,2,16,0.00
2014-9-3,78.5,62.0,55.5,61.5,56.3,53.6,96,83,55,29.83,29.73,7,1,12,0.00
2014-9-4,76.8,61.7,55.9,61.4,56.3,53.8,97,84,56,29.81,29.72,11,1,13,0.00
2014-9-5,76.4,62.9,51.3,58.2,54.7,48.3,90,76,53,29.94,29.81,8,1,10,0.00
2014-9-6,78.6,61.1,49.0,56.8,52.4,46.5,94,76,43,29.98,29.90,9,0,10,0.00
2014-9-7,76.7,60.0,47.0,56.3,51.6,44.3,94,76,46,29.92,29.82,7,1,9,0.00
2014-9-8,71.1,57.2,48.8,56.1,51.8,45.9,94,83,58,29.94,29.85,7,1,9,0.00
2014-9-9,81.1,61.7,48.4,58.2,53.3,45.6,94,77,42,30.01,29.91,6,0,8,0.00
2014-9-10,94.7,65.3,48.4,59.4,52.7,46.2,97,70,27,29.96,29.87,8,0,9,0.00
2014-9-11,93.5,65.6,51.0,58.2,52.2,48.2,96,69,23,29.92,29.85,7,1,10,0.00
2014-9-12,90.3,64.5,49.4,60.5,52.9,47.2,96,72,32,29.91,29.82,5,0,7,0.00
2014-9-13,86.1,60.5,55.0,59.6,54.8,52.6,96,84,38,29.87,29.82,2,0,9,0.00
2014-9-14,81.5,63.6,55.4,59.6,55.0,52.3,94,77,37,29.88,29.82,4,0,11,0.00
2014-9-15,81.3,62.6,49.8,58.8,52.6,47.9,97,74,39,29.94,29.84,5,1,14,0.00
2014-9-16,84.3,64.1,47.0,59.5,53.2,44.8,94,72,34,29.94,29.83,3,0,9,0.00
2014-9-17,78.9,66.0,57.5,63.2,57.8,55.3,94,77,47,29.84,29.77,6,1,14,0.00
2014-9-18,74.5,67.4,59.8,65.8,63.3,57.8,97,87,67,29.91,29.78,4,1,12,0.01
2014-9-19,76.5,63.2,55.6,64.5,59.5,54.2,98,89,65,29.93,29.87,5,1,11,0.00
2014-9-20,60.7,60.4,60.2,59.0,58.9,58.8,95,94,94,29.90,29.90,0,0,2,0.00
2014-9-23,82.4,63.6,47.9,64.9,56.6,46.3,96,80,54,30.01,29.95,4,1,12,0.00
2014-9-24,73.7,66.3,60.2,65.8,62.4,58.5,97,88,72,29.97,29.89,4,1,12,0.00
2014-9-25,71.4,62.6,55.0,59.8,57.8,53.9,98,85,64,30.01,29.89,5,1,13,0.00
2014-9-26,74.4,61.0,52.0,62.8,55.0,50.8,97,82,53,30.01,29.91,5,1,14,0.00
2014-9-27,79.0,62.3,49.0,59.1,53.8,47.6,97,77,41,29.92,29.81,3,0,11,0.00
2014-9-28,73.3,59.7,50.6,60.1,55.0,48.9,97,85,60,29.97,29.82,4,1,12,0.00
2014-9-29,73.3,57.4,52.4,59.8,54.0,50.7,97,89,59,30.04,29.86,7,1,11,0.00
2014-9-30,82.9,62.7,49.4,60.2,53.5,48.0,98,76,40,29.98,29.77,7,1,11,0.00
2014-10-1,92.5,66.5,49.1,53.6,44.9,32.7,93,56,13,29.95,29.76,10,1,11,0.00
2014-10-2,94.3,66.0,42.2,50.8,43.0,38.7,93,53,15,30.04,29.85,6,0,9,0.00
2014-10-3,97.8,68.3,45.5,46.7,42.0,33.1,85,48,13,30.11,29.94,6,0,11,0.00
2014-10-4,97.4,68.0,44.7,48.0,42.8,34.9,86,49,13,30.06,29.85,8,1,11,0.00
2014-10-5,96.0,66.3,45.2,56.1,47.4,41.9,91,59,19,29.98,29.81,6,1,11,0.00
2014-10-6,94.6,63.7,45.7,57.4,50.3,43.8,96,69,24,29.95,29.78,8,1,9,0.00
2014-10-7,83.4,59.4,44.3,58.1,50.3,42.5,98,77,37,29.95,29.76,7,1,11,0.00
2014-10-8,93.8,63.9,44.5,57.1,49.4,42.9,97,68,20,29.93,29.77,8,1,10,0.00
2014-10-9,75.3,57.8,47.2,59.2,51.8,45.1,97,82,54,29.99,29.80,9,1,12,0.00
2014-10-10,75.8,60.7,49.4,57.0,52.7,46.9,95,78,48,30.07,29.89,8,1,12,0.00
2014-10-11,83.9,60.4,47.4,58.6,51.6,44.9,98,77,35,30.08,29.88,5,1,11,0.00
2014-10-12,95.0,69.3,50.0,56.1,41.3,16.8,94,52,6,30.01,29.82,11,1,13,0.00
2014-10-13,88.9,62.4,44.9,56.9,45.2,34.5,89,60,15,29.98,29.81,18,1,18,0.00
2014-10-14,65.3,61.6,58.7,58.1,56.5,54.6,90,84,76,29.97,29.72,9,2,15,0.00
2014-10-15,70.7,61.6,52.0,61.0,54.2,47.6,98,79,45,30.04,29.75,7,1,11,0.00
2014-10-16,71.8,57.2,46.5,54.0,49.2,44.9,97,77,43,30.05,29.84,7,1,13,0.00
2014-10-17,70.8,58.6,48.0,59.6,52.9,46.1,96,83,55,29.99,29.82,10,0,11,0.00
2014-10-18,78.8,66.3,55.9,62.0,58.9,53.7,96,79,51,30.00,29.81,9,1,11,0.00
2014-10-19,74.7,61.9,55.6,62.7,57.7,54.0,99,87,62,29.94,29.78,9,1,12,0.00
2014-10-20,70.0,60.7,48.8,60.5,55.4,46.3,98,84,59,30.05,29.79,12,1,15,0.00
2014-10-21,73.3,56.4,42.9,54.3,48.1,41.3,97,77,39,30.12,29.91,9,1,12,0.00
2014-10-22,76.3,57.7,43.7,57.4,50.5,42.1,97,79,50,30.08,29.92,10,1,11,0.00
2014-10-23,71.8,60.7,53.7,60.8,56.0,51.6,96,85,67,30.08,29.87,4,0,7,0.00
2014-10-24,72.9,59.0,48.0,59.5,53.9,46.4,99,84,58,29.99,29.78,10,1,17,0.00
2014-10-25,67.5,60.9,51.7,60.6,56.5,50.0,97,86,68,30.15,29.76,19,3,25,0.00
2014-10-26,69.7,57.0,44.1,52.1,47.3,42.8,98,74,40,30.19,29.96,13,2,15,0.00
2014-10-27,74.0,53.7,39.0,51.7,45.2,37.1,97,76,37,30.07,29.90,5,0,7,0.00
2014-10-28,77.1,56.6,41.7,54.9,48.0,40.1,97,76,40,30.12,29.95,6,0,7,0.00
2014-10-29,83.4,61.3,46.6,58.6,52.0,45.0,97,75,38,30.12,29.89,3,0,4,0.00
2014-10-30,74.2,60.4,49.9,59.0,54.1,48.2,98,82,48,29.99,29.77,11,1,14,0.00
2014-10-31,64.8,58.4,50.7,58.0,53.8,47.3,96,85,64,29.89,29.62,8,1,11,0.00
2014-11-1,68.1,53.3,40.7,50.1,44.4,38.7,97,75,35,30.04,29.61,8,1,13,0.00
2014-11-2,71.0,51.7,40.4,48.0,42.5,38.3,96,74,36,30.17,29.94,6,0,9,0.00
2014-11-3,69.8,52.4,41.4,49.4,44.7,38.4,96,78,41,30.26,30.06,8,0,9,0.00
2014-11-4,46.1,42.7,39.2,43.3,40.7,37.3,94,93,90,30.29,30.15,0,0,0,0.00
2014-11-15,45.3,45.3,45.3,43.4,43.4,43.4,93,93,93,29.98,29.98,0,0,0,0.00
2014-12-1,63.1,56.8,52.8,58.5,54.9,51.4,98,94,85,30.11,29.95,1,0,6,0.00
2014-12-2,60.3,55.6,51.8,57.2,53.5,50.4,98,93,77,29.95,29.67,6,2,16,0.00
2014-12-3,62.1,58.2,54.6,60.1,56.9,53.8,98,95,89,29.86,29.65,9,3,23,0.00
2014-12-4,62.2,56.5,51.5,59.8,55.1,50.4,99,95,86,30.00,29.86,3,0,12,0.00
2014-12-5,62.0,54.5,51.9,59.8,53.6,51.1,99,97,90,30.03,29.94,4,1,11,0.00
2014-12-6,62.8,55.9,49.7,57.4,53.9,48.6,99,93,80,30.22,30.05,3,0,10,0.00
2014-12-7,60.5,55.0,46.6,57.7,53.8,46.1,99,96,89,30.20,30.10,3,0,10,0.00
2014-12-8,63.0,58.2,55.8,59.4,56.8,54.7,99,95,84,30.17,30.11,2,0,5,0.00
2014-12-9,59.9,57.6,54.3,59.6,57.3,53.7,99,99,97,30.20,30.06,3,0,5,0.00
2014-12-10,58.8,56.6,54.9,58.2,56.0,54.5,99,98,92,30.07,29.62,10,2,12,0.00
2014-12-11,60.3,55.1,49.6,59.4,54.4,49.1,99,97,95,29.66,29.42,17,4,31,0.00
2014-12-12,54.6,50.3,48.8,51.1,49.4,48.3,99,97,83,29.92,29.63,9,1,12,0.00
2014-12-18,55.5,51.7,49.5,53.5,50.5,48.2,98,96,90,30.17,30.04,3,1,8,0.00
2014-12-19,57.0,54.2,51.7,56.3,53.6,50.6,99,98,95,30.14,30.03,5,1,11,0.00
2014-12-20,55.8,53.5,52.1,55.4,52.9,51.6,99,98,96,30.21,30.11,2,0,7,0.00
2014-12-21,67.4,57.6,51.3,61.7,56.5,50.2,100,96,82,30.29,30.21,2,0,6,0.00
2014-12-22,68.7,54.9,45.4,57.7,51.8,44.9,100,90,67,30.27,30.16,4,0,9,0.00
2014-12-23,67.5,53.5,46.3,57.2,50.6,45.7,99,91,68,30.21,30.11,1,0,5,0.00
2014-12-24,56.1,49.3,46.2,55.2,41.7,35.3,99,76,63,30.10,29.92,11,4,21,0.00
2014-12-25,57.9,48.1,38.6,39.5,36.8,33.6,85,66,44,30.15,30.06,8,2,14,0.00
2014-12-26,60.1,46.5,37.3,38.5,33.6,25.9,84,64,27,30.25,30.12,8,2,17,0.00
2014-12-27,58.6,41.8,29.6,41.1,34.9,27.3,94,78,49,30.37,30.24,7,0,7,0.00
2014-12-28,58.0,46.4,33.8,49.8,41.6,32.3,97,84,67,30.36,30.20,2,0,7,0.30
2014-12-29,54.8,40.5,31.4,44.3,36.2,30.1,98,86,63,30.23,30.08,5,0,9,0.01
2014-12-30,52.8,45.1,35.8,37.0,23.3,11.6,91,48,23,30.31,30.11,30,7,41,0.00
2014-12-31,65.1,46.3,32.9,29.7,17.8,4.5,78,36,11,30.30,30.04,17,2,21,0.00
2015-1-1,54.1,38.3,26.9,33.9,29.0,23.6,91,71,43,30.17,30.05,7,1,9,0.00
2015-1-2,55.2,38.3,27.5,38.1,31.8,25.4,95,79,50,30.23,30.09,5,0,6,0.00